sensor_id;sensor_type;location;lat;lon;timestamp;pressure;altitude;pressure_sealevel;temperature;humidity
35694;BME280;21812;55.536;37.664;2022-12-08T00:01:16;100276.34;;;-2.56;48.11
35694;BME280;21812;55.536;37.664;2022-12-08T00:03:42;100324.34;;;-2.43;49.73
35694;BME280;21812;55.536;37.664;2022-12-08T00:06:22;100320.81;;;-2.13;49.00
35694;BME280;21812;55.536;37.664;2022-12-08T00:11:51;100319.16;;;-2.28;49.78
35694;BME280;21812;55.536;37.664;2022-12-08T00:14:17;100319.78;;;-2.10;46.92
35694;BME280;21812;55.536;37.664;2022-12-08T00:16:43;100319.50;;;-2.20;47.25
35694;BME280;21812;55.536;37.664;2022-12-08T00:19:09;100312.47;;;-2.48;48.16
35694;BME280;21812;55.536;37.664;2022-12-08T00:21:34;100319.28;;;-2.60;48.52
35694;BME280;21812;55.536;37.664;2022-12-08T00:24:00;100319.72;;;-2.82;49.47
35694;BME280;21812;55.536;37.664;2022-12-08T00:26:25;100315.34;;;-2.82;52.23
35694;BME280;21812;55.536;37.664;2022-12-08T00:28:51;100287.13;;;-2.91;49.24
35694;BME280;21812;55.536;37.664;2022-12-08T00:31:17;100306.09;;;-2.73;49.56
35694;BME280;21812;55.536;37.664;2022-12-08T00:33:42;100312.00;;;-2.69;48.53
35694;BME280;21812;55.536;37.664;2022-12-08T00:36:10;100274.84;;;-2.60;48.75
35694;BME280;21812;55.536;37.664;2022-12-08T00:38:37;100305.13;;;-2.42;48.86
35694;BME280;21812;55.536;37.664;2022-12-08T00:41:03;100302.84;;;-2.48;49.00
35694;BME280;21812;55.536;37.664;2022-12-08T00:43:31;100295.19;;;-2.37;48.95
35694;BME280;21812;55.536;37.664;2022-12-08T00:45:57;100302.78;;;-2.46;48.98
35694;BME280;21812;55.536;37.664;2022-12-08T00:48:22;100302.31;;;-2.53;48.65
35694;BME280;21812;55.536;37.664;2022-12-08T00:50:48;100296.16;;;-2.38;50.58
35694;BME280;21812;55.536;37.664;2022-12-08T00:53:14;100304.72;;;-2.21;48.23
35694;BME280;21812;55.536;37.664;2022-12-08T00:55:39;100301.72;;;-2.01;48.97
35694;BME280;21812;55.536;37.664;2022-12-08T00:58:05;100295.75;;;-2.03;48.20
35694;BME280;21812;55.536;37.664;2022-12-08T01:00:31;100304.84;;;-2.23;48.28
35694;BME280;21812;55.536;37.664;2022-12-08T01:02:56;100300.53;;;-2.24;49.35
35694;BME280;21812;55.536;37.664;2022-12-08T01:05:22;100300.25;;;-2.19;49.30
35694;BME280;21812;55.536;37.664;2022-12-08T01:07:48;100290.16;;;-2.25;48.08
35694;BME280;21812;55.536;37.664;2022-12-08T01:10:14;100305.13;;;-2.13;49.27
35694;BME280;21812;55.536;37.664;2022-12-08T01:12:40;100298.84;;;-2.39;48.95
35694;BME280;21812;55.536;37.664;2022-12-08T01:15:06;100297.63;;;-2.19;50.62
35694;BME280;21812;55.536;37.664;2022-12-08T01:17:36;100254.09;;;-2.34;49.31
35694;BME280;21812;55.536;37.664;2022-12-08T01:20:02;100285.28;;;-2.03;48.94
35694;BME280;21812;55.536;37.664;2022-12-08T01:22:29;100305.31;;;-2.02;52.41
35694;BME280;21812;55.536;37.664;2022-12-08T01:24:55;100297.16;;;-2.11;48.96
35694;BME280;21812;55.536;37.664;2022-12-08T01:27:20;100298.38;;;-2.03;48.80
35694;BME280;21812;55.536;37.664;2022-12-08T01:29:46;100295.09;;;-1.92;50.36
35694;BME280;21812;55.536;37.664;2022-12-08T01:32:11;100293.88;;;-2.01;48.12
35694;BME280;21812;55.536;37.664;2022-12-08T01:34:37;100251.38;;;-2.33;50.28
35694;BME280;21812;55.536;37.664;2022-12-08T01:37:03;100297.16;;;-1.97;48.75
35694;BME280;21812;55.536;37.664;2022-12-08T01:39:28;100292.31;;;-2.18;48.44
35694;BME280;21812;55.536;37.664;2022-12-08T01:41:54;100282.13;;;-2.37;50.17
35694;BME280;21812;55.536;37.664;2022-12-08T01:46:46;100294.28;;;-2.07;46.94
35694;BME280;21812;55.536;37.664;2022-12-08T01:54:13;100290.44;;;-2.16;49.07
35694;BME280;21812;55.536;37.664;2022-12-08T01:57:01;100236.53;;;-2.32;50.08
35694;BME280;21812;55.536;37.664;2022-12-08T01:59:29;100216.81;;;-2.24;48.95
35694;BME280;21812;55.536;37.664;2022-12-08T02:01:57;100278.44;;;-1.91;47.31
35694;BME280;21812;55.536;37.664;2022-12-08T02:04:23;100288.38;;;-2.10;47.74
35694;BME280;21812;55.536;37.664;2022-12-08T02:06:49;100222.94;;;-2.66;48.36
35694;BME280;21812;55.536;37.664;2022-12-08T02:09:16;100290.72;;;-2.34;49.95
35694;BME280;21812;55.536;37.664;2022-12-08T02:11:43;100291.28;;;-2.44;50.32
35694;BME280;21812;55.536;37.664;2022-12-08T02:14:09;100226.00;;;-2.74;48.76
35694;BME280;21812;55.536;37.664;2022-12-08T02:16:50;100160.13;;;-3.24;48.66
35694;BME280;21812;55.536;37.664;2022-12-08T02:22:28;100271.28;;;-2.30;52.19
35694;BME280;21812;55.536;37.664;2022-12-08T02:25:17;100204.59;;;-2.81;51.13
35694;BME280;21812;55.536;37.664;2022-12-08T02:36:51;100268.34;;;-1.97;48.47
35694;BME280;21812;55.536;37.664;2022-12-08T02:44:49;100256.16;;;-1.69;49.15
35694;BME280;21812;55.536;37.664;2022-12-08T02:47:18;100254.38;;;-1.69;47.11
35694;BME280;21812;55.536;37.664;2022-12-08T02:49:45;100254.63;;;-2.01;47.07
35694;BME280;21812;55.536;37.664;2022-12-08T02:54:38;100185.72;;;-2.43;49.13
35694;BME280;21812;55.536;37.664;2022-12-08T03:00:26;100247.50;;;-1.99;49.58
35694;BME280;21812;55.536;37.664;2022-12-08T03:03:23;100245.69;;;-1.84;47.97
35694;BME280;21812;55.536;37.664;2022-12-08T03:05:56;100234.06;;;-2.07;50.25
35694;BME280;21812;55.536;37.664;2022-12-08T03:08:56;100247.72;;;-2.16;49.97
35694;BME280;21812;55.536;37.664;2022-12-08T03:11:33;100227.63;;;-2.01;48.66
35694;BME280;21812;55.536;37.664;2022-12-08T03:14:00;100235.97;;;-1.54;52.19
35694;BME280;21812;55.536;37.664;2022-12-08T03:16:29;100223.09;;;-1.45;47.55
35694;BME280;21812;55.536;37.664;2022-12-08T03:19:13;100159.25;;;-1.97;49.15
35694;BME280;21812;55.536;37.664;2022-12-08T03:21:43;100228.72;;;-1.64;47.66
35694;BME280;21812;55.536;37.664;2022-12-08T03:24:11;100229.97;;;-1.69;47.09
35694;BME280;21812;55.536;37.664;2022-12-08T03:26:42;100237.00;;;-1.57;50.65
35694;BME280;21812;55.536;37.664;2022-12-08T03:29:08;100230.94;;;-1.58;48.30
35694;BME280;21812;55.536;37.664;2022-12-08T03:31:39;100223.94;;;-1.84;50.03
35694;BME280;21812;55.536;37.664;2022-12-08T03:34:06;100225.25;;;-1.91;50.68
35694;BME280;21812;55.536;37.664;2022-12-08T03:36:34;100220.91;;;-2.05;48.86
35694;BME280;21812;55.536;37.664;2022-12-08T03:39:00;100217.56;;;-2.22;51.76
35694;BME280;21812;55.536;37.664;2022-12-08T03:41:26;100214.28;;;-2.25;52.36
35694;BME280;21812;55.536;37.664;2022-12-08T03:43:56;100171.81;;;-2.43;54.40
35694;BME280;21812;55.536;37.664;2022-12-08T03:46:26;100205.47;;;-2.10;51.67
35694;BME280;21812;55.536;37.664;2022-12-08T03:48:52;100203.91;;;-2.12;52.39
35694;BME280;21812;55.536;37.664;2022-12-08T03:51:20;100212.41;;;-2.09;55.40
35694;BME280;21812;55.536;37.664;2022-12-08T03:53:46;100213.31;;;-1.95;52.45
35694;BME280;21812;55.536;37.664;2022-12-08T03:56:30;100177.81;;;-2.14;49.00
35694;BME280;21812;55.536;37.664;2022-12-08T03:58:56;100206.44;;;-2.25;54.33
35694;BME280;21812;55.536;37.664;2022-12-08T04:01:22;100198.47;;;-2.09;53.12
35694;BME280;21812;55.536;37.664;2022-12-08T04:03:48;100205.78;;;-1.87;51.60
35694;BME280;21812;55.536;37.664;2022-12-08T04:06:14;100198.72;;;-2.00;51.98
35694;BME280;21812;55.536;37.664;2022-12-08T04:08:40;100197.94;;;-2.14;50.80
35694;BME280;21812;55.536;37.664;2022-12-08T04:11:06;100198.41;;;-2.37;55.08
35694;BME280;21812;55.536;37.664;2022-12-08T04:13:36;100201.41;;;-2.28;53.20
35694;BME280;21812;55.536;37.664;2022-12-08T04:16:02;100175.25;;;-2.01;52.54
35694;BME280;21812;55.536;37.664;2022-12-08T04:18:29;100186.50;;;-2.13;51.06
35694;BME280;21812;55.536;37.664;2022-12-08T04:20:55;100192.44;;;-2.24;53.59
35694;BME280;21812;55.536;37.664;2022-12-08T04:23:20;100194.41;;;-2.01;52.83
35694;BME280;21812;55.536;37.664;2022-12-08T04:25:46;100187.88;;;-2.08;52.05
35694;BME280;21812;55.536;37.664;2022-12-08T04:28:14;100172.84;;;-2.46;52.32
35694;BME280;21812;55.536;37.664;2022-12-08T04:30:41;100208.50;;;-2.30;51.60
35694;BME280;21812;55.536;37.664;2022-12-08T04:33:06;100206.69;;;-2.16;51.54
35694;BME280;21812;55.536;37.664;2022-12-08T04:35:32;100178.91;;;-2.04;53.88
35694;BME280;21812;55.536;37.664;2022-12-08T04:37:58;100193.59;;;-1.74;51.21
35694;BME280;21812;55.536;37.664;2022-12-08T04:40:24;100194.13;;;-1.69;50.53
35694;BME280;21812;55.536;37.664;2022-12-08T04:42:50;100191.97;;;-1.89;50.48
35694;BME280;21812;55.536;37.664;2022-12-08T04:45:16;100192.94;;;-2.05;51.83
35694;BME280;21812;55.536;37.664;2022-12-08T04:47:41;100191.56;;;-2.10;52.48
35694;BME280;21812;55.536;37.664;2022-12-08T04:50:07;100204.34;;;-2.47;50.45
35694;BME280;21812;55.536;37.664;2022-12-08T04:52:33;100205.50;;;-3.25;51.62
35694;BME280;21812;55.536;37.664;2022-12-08T04:54:59;100193.63;;;-4.07;53.63
35694;BME280;21812;55.536;37.664;2022-12-08T04:57:25;100195.19;;;-4.52;54.79
35694;BME280;21812;55.536;37.664;2022-12-08T04:59:51;100200.13;;;-4.79;56.98
35694;BME280;21812;55.536;37.664;2022-12-08T05:02:17;100205.38;;;-4.97;56.23
35694;BME280;21812;55.536;37.664;2022-12-08T05:04:43;100181.34;;;-4.86;57.05
35694;BME280;21812;55.536;37.664;2022-12-08T05:07:08;100202.50;;;-4.92;56.23
35694;BME280;21812;55.536;37.664;2022-12-08T05:09:34;100199.19;;;-5.12;58.54
35694;BME280;21812;55.536;37.664;2022-12-08T05:12:00;100196.88;;;-5.35;58.12
35694;BME280;21812;55.536;37.664;2022-12-08T05:14:26;100197.44;;;-5.46;60.19
35694;BME280;21812;55.536;37.664;2022-12-08T05:16:51;100200.25;;;-5.51;58.67
35694;BME280;21812;55.536;37.664;2022-12-08T05:19:17;100184.13;;;-5.06;62.35
35694;BME280;21812;55.536;37.664;2022-12-08T05:21:43;100189.63;;;-4.78;56.72
35694;BME280;21812;55.536;37.664;2022-12-08T05:24:09;100186.84;;;-5.08;56.61
35694;BME280;21812;55.536;37.664;2022-12-08T05:26:35;100187.84;;;-5.28;58.16
35694;BME280;21812;55.536;37.664;2022-12-08T05:29:00;100186.00;;;-5.26;60.93
35694;BME280;21812;55.536;37.664;2022-12-08T05:31:26;100192.28;;;-5.30;58.59
35694;BME280;21812;55.536;37.664;2022-12-08T05:33:52;100190.69;;;-5.33;59.36
35694;BME280;21812;55.536;37.664;2022-12-08T05:36:19;100194.13;;;-5.32;57.86
35694;BME280;21812;55.536;37.664;2022-12-08T05:38:45;100198.94;;;-5.77;58.71
35694;BME280;21812;55.536;37.664;2022-12-08T05:41:16;100204.16;;;-5.77;60.05
35694;BME280;21812;55.536;37.664;2022-12-08T05:43:42;100209.25;;;-5.75;60.01
35694;BME280;21812;55.536;37.664;2022-12-08T05:46:08;100203.59;;;-5.83;60.01
35694;BME280;21812;55.536;37.664;2022-12-08T05:48:35;100197.44;;;-6.00;61.03
35694;BME280;21812;55.536;37.664;2022-12-08T05:51:01;100195.03;;;-5.85;61.68
35694;BME280;21812;55.536;37.664;2022-12-08T05:53:26;100188.69;;;-5.80;62.52
35694;BME280;21812;55.536;37.664;2022-12-08T05:55:52;100205.41;;;-5.85;61.66
35694;BME280;21812;55.536;37.664;2022-12-08T05:58:20;100147.41;;;-6.22;61.93
35694;BME280;21812;55.536;37.664;2022-12-08T06:00:47;100207.13;;;-5.84;62.13
35694;BME280;21812;55.536;37.664;2022-12-08T06:03:14;100206.19;;;-6.01;60.15
35694;BME280;21812;55.536;37.664;2022-12-08T06:05:41;100201.91;;;-6.21;60.90
35694;BME280;21812;55.536;37.664;2022-12-08T06:08:08;100205.03;;;-6.51;62.33
35694;BME280;21812;55.536;37.664;2022-12-08T06:10:34;100204.03;;;-6.48;63.25
35694;BME280;21812;55.536;37.664;2022-12-08T06:13:02;100195.69;;;-6.74;62.88
35694;BME280;21812;55.536;37.664;2022-12-08T06:15:27;100196.41;;;-6.91;65.56
35694;BME280;21812;55.536;37.664;2022-12-08T06:17:53;100186.19;;;-6.75;64.34
35694;BME280;21812;55.536;37.664;2022-12-08T06:20:19;100200.44;;;-6.64;64.33
35694;BME280;21812;55.536;37.664;2022-12-08T06:22:44;100188.34;;;-6.84;63.90
35694;BME280;21812;55.536;37.664;2022-12-08T06:25:10;100195.16;;;-6.82;64.70
35694;BME280;21812;55.536;37.664;2022-12-08T06:27:36;100191.44;;;-6.76;64.83
35694;BME280;21812;55.536;37.664;2022-12-08T06:30:05;100198.09;;;-6.90;65.01
35694;BME280;21812;55.536;37.664;2022-12-08T06:32:31;100194.16;;;-6.98;64.56
35694;BME280;21812;55.536;37.664;2022-12-08T06:34:57;100195.22;;;-7.02;64.69
35694;BME280;21812;55.536;37.664;2022-12-08T06:37:22;100183.44;;;-6.91;64.68
35694;BME280;21812;55.536;37.664;2022-12-08T06:39:48;100198.41;;;-6.77;64.33
35694;BME280;21812;55.536;37.664;2022-12-08T06:42:14;100188.78;;;-6.56;65.38
35694;BME280;21812;55.536;37.664;2022-12-08T06:45:06;100164.06;;;-6.64;63.94
35694;BME280;21812;55.536;37.664;2022-12-08T06:47:32;100190.63;;;-6.58;63.45
35694;BME280;21812;55.536;37.664;2022-12-08T06:49:57;100183.88;;;-6.62;65.67
35694;BME280;21812;55.536;37.664;2022-12-08T06:52:23;100190.50;;;-6.55;64.00
35694;BME280;21812;55.536;37.664;2022-12-08T06:54:49;100203.13;;;-6.66;63.86
35694;BME280;21812;55.536;37.664;2022-12-08T06:57:15;100199.56;;;-6.84;63.62
35694;BME280;21812;55.536;37.664;2022-12-08T06:59:40;100190.00;;;-7.02;63.86
35694;BME280;21812;55.536;37.664;2022-12-08T07:02:06;100193.50;;;-7.24;63.41
35694;BME280;21812;55.536;37.664;2022-12-08T07:04:32;100188.84;;;-7.16;65.27
35694;BME280;21812;55.536;37.664;2022-12-08T07:06:57;100204.34;;;-6.94;64.33
35694;BME280;21812;55.536;37.664;2022-12-08T07:09:23;100198.41;;;-6.77;65.20
35694;BME280;21812;55.536;37.664;2022-12-08T07:11:48;100197.00;;;-6.65;63.85
35694;BME280;21812;55.536;37.664;2022-12-08T07:14:14;100176.19;;;-6.84;62.09
35694;BME280;21812;55.536;37.664;2022-12-08T07:16:40;100193.56;;;-6.65;63.55
35694;BME280;21812;55.536;37.664;2022-12-08T07:19:05;100175.94;;;-6.59;65.09
35694;BME280;21812;55.536;37.664;2022-12-08T07:21:31;100176.56;;;-6.54;63.44
35694;BME280;21812;55.536;37.664;2022-12-08T07:23:57;100197.50;;;-6.57;62.91
35694;BME280;21812;55.536;37.664;2022-12-08T07:26:23;100180.09;;;-6.74;62.14
35694;BME280;21812;55.536;37.664;2022-12-08T07:28:48;100192.16;;;-6.73;62.99
35694;BME280;21812;55.536;37.664;2022-12-08T07:31:17;100109.03;;;-7.31;63.59
35694;BME280;21812;55.536;37.664;2022-12-08T07:33:43;100206.97;;;-6.75;64.62
35694;BME280;21812;55.536;37.664;2022-12-08T07:36:09;100189.56;;;-6.73;63.32
35694;BME280;21812;55.536;37.664;2022-12-08T07:38:35;100183.03;;;-6.81;63.43
35694;BME280;21812;55.536;37.664;2022-12-08T07:41:01;100197.06;;;-6.47;63.78
35694;BME280;21812;55.536;37.664;2022-12-08T07:43:26;100192.59;;;-6.44;64.84
35694;BME280;21812;55.536;37.664;2022-12-08T07:45:52;100172.00;;;-6.30;62.58
35694;BME280;21812;55.536;37.664;2022-12-08T07:48:18;100176.56;;;-6.35;65.49
35694;BME280;21812;55.536;37.664;2022-12-08T07:50:45;100180.69;;;-6.12;62.60
35694;BME280;21812;55.536;37.664;2022-12-08T07:53:11;100161.44;;;-5.90;63.22
35694;BME280;21812;55.536;37.664;2022-12-08T07:55:40;100169.41;;;-5.76;60.61
35694;BME280;21812;55.536;37.664;2022-12-08T07:58:07;100162.47;;;-5.94;62.20
35694;BME280;21812;55.536;37.664;2022-12-08T08:00:33;100153.00;;;-6.13;60.59
35694;BME280;21812;55.536;37.664;2022-12-08T08:02:59;100167.22;;;-6.20;61.70
35694;BME280;21812;55.536;37.664;2022-12-08T08:05:24;100153.50;;;-6.23;64.51
35694;BME280;21812;55.536;37.664;2022-12-08T08:07:50;100163.28;;;-6.29;61.28
35694;BME280;21812;55.536;37.664;2022-12-08T08:10:16;100165.09;;;-6.31;61.83
35694;BME280;21812;55.536;37.664;2022-12-08T08:12:42;100167.72;;;-6.31;62.04
35694;BME280;21812;55.536;37.664;2022-12-08T08:15:12;100156.50;;;-6.50;61.55
35694;BME280;21812;55.536;37.664;2022-12-08T08:17:38;100160.84;;;-6.70;62.34
35694;BME280;21812;55.536;37.664;2022-12-08T08:20:06;100155.47;;;-6.85;62.76
35694;BME280;21812;55.536;37.664;2022-12-08T08:22:33;100156.38;;;-7.05;63.20
35694;BME280;21812;55.536;37.664;2022-12-08T08:24:58;100162.69;;;-6.72;62.83
35694;BME280;21812;55.536;37.664;2022-12-08T08:27:24;100157.06;;;-6.62;62.83
35694;BME280;21812;55.536;37.664;2022-12-08T08:29:51;100142.59;;;-6.68;62.72
35694;BME280;21812;55.536;37.664;2022-12-08T08:32:17;100148.16;;;-6.76;62.84
35694;BME280;21812;55.536;37.664;2022-12-08T08:34:43;100148.47;;;-6.83;62.88
35694;BME280;21812;55.536;37.664;2022-12-08T08:37:08;100115.53;;;-7.21;63.12
35694;BME280;21812;55.536;37.664;2022-12-08T08:39:34;100115.53;;;-7.21;63.03
35694;BME280;21812;55.536;37.664;2022-12-08T08:42:00;100157.94;;;-7.01;63.30
35694;BME280;21812;55.536;37.664;2022-12-08T08:44:26;100161.88;;;-6.93;63.31
35694;BME280;21812;55.536;37.664;2022-12-08T08:46:51;100152.69;;;-6.81;63.27
35694;BME280;21812;55.536;37.664;2022-12-08T08:49:17;100147.34;;;-6.78;63.30
35694;BME280;21812;55.536;37.664;2022-12-08T08:51:45;100151.16;;;-6.66;63.57
35694;BME280;21812;55.536;37.664;2022-12-08T08:54:11;100137.47;;;-6.70;63.13
35694;BME280;21812;55.536;37.664;2022-12-08T08:56:37;100145.03;;;-6.84;63.86
35694;BME280;21812;55.536;37.664;2022-12-08T08:59:03;100153.09;;;-6.90;64.07
35694;BME280;21812;55.536;37.664;2022-12-08T09:01:29;100145.03;;;-6.84;64.05
35694;BME280;21812;55.536;37.664;2022-12-08T09:03:55;100141.03;;;-6.72;63.84
35694;BME280;21812;55.536;37.664;2022-12-08T09:06:22;100131.50;;;-6.91;63.39
35694;BME280;21812;55.536;37.664;2022-12-08T09:08:48;100136.19;;;-6.80;63.34
35694;BME280;21812;55.536;37.664;2022-12-08T09:11:14;100157.91;;;-6.81;63.76
35694;BME280;21812;55.536;37.664;2022-12-08T09:13:40;100147.16;;;-6.73;63.73
35694;BME280;21812;55.536;37.664;2022-12-08T09:16:07;100143.03;;;-6.77;63.10
35694;BME280;21812;55.536;37.664;2022-12-08T09:18:35;100148.91;;;-6.74;63.82
35694;BME280;21812;55.536;37.664;2022-12-08T09:21:06;100147.63;;;-6.84;63.39
35694;BME280;21812;55.536;37.664;2022-12-08T09:23:34;100147.78;;;-6.87;63.87
35694;BME280;21812;55.536;37.664;2022-12-08T09:26:02;100067.06;;;-7.20;63.98
35694;BME280;21812;55.536;37.664;2022-12-08T09:28:27;100146.88;;;-6.67;63.84
35694;BME280;21812;55.536;37.664;2022-12-08T09:30:53;100133.59;;;-6.80;64.42
35694;BME280;21812;55.536;37.664;2022-12-08T09:33:24;100138.38;;;-6.71;64.68
35694;BME280;21812;55.536;37.664;2022-12-08T09:35:50;100140.34;;;-6.76;64.98
35694;BME280;21812;55.536;37.664;2022-12-08T09:38:17;100145.31;;;-6.52;65.04
35694;BME280;21812;55.536;37.664;2022-12-08T09:40:52;100148.34;;;-6.42;64.78
35694;BME280;21812;55.536;37.664;2022-12-08T09:45:47;100140.13;;;-6.52;64.79
35694;BME280;21812;55.536;37.664;2022-12-08T09:48:15;100036.25;;;-7.09;64.89
35694;BME280;21812;55.536;37.664;2022-12-08T09:50:55;100114.22;;;-6.54;65.26
35694;BME280;21812;55.536;37.664;2022-12-08T09:53:26;100128.59;;;-6.46;64.77
35694;BME280;21812;55.536;37.664;2022-12-08T09:55:56;100109.88;;;-6.72;64.44
35694;BME280;21812;55.536;37.664;2022-12-08T09:58:44;100032.25;;;-7.16;64.55
35694;BME280;21812;55.536;37.664;2022-12-08T10:01:29;100121.66;;;-6.65;64.57
35694;BME280;21812;55.536;37.664;2022-12-08T10:03:56;100134.56;;;-6.44;64.42
35694;BME280;21812;55.536;37.664;2022-12-08T10:06:38;100128.78;;;-6.32;64.16
35694;BME280;21812;55.536;37.664;2022-12-08T10:11:59;100058.13;;;-6.77;64.48
35694;BME280;21812;55.536;37.664;2022-12-08T10:17:25;100134.44;;;-6.05;63.32
35694;BME280;21812;55.536;37.664;2022-12-08T10:20:23;100137.25;;;-6.10;63.15
35694;BME280;21812;55.536;37.664;2022-12-08T10:22:55;100128.91;;;-6.16;63.57
35694;BME280;21812;55.536;37.664;2022-12-08T10:25:36;100067.50;;;-6.55;63.77
35694;BME280;21812;55.536;37.664;2022-12-08T10:28:03;100128.91;;;-6.16;63.88
35694;BME280;21812;55.536;37.664;2022-12-08T10:30:30;100105.50;;;-6.16;63.65
35694;BME280;21812;55.536;37.664;2022-12-08T10:32:56;100124.56;;;-6.16;63.54
35694;BME280;21812;55.536;37.664;2022-12-08T10:35:22;100124.25;;;-6.10;63.72
35694;BME280;21812;55.536;37.664;2022-12-08T10:38:00;100064.47;;;-6.46;63.57
35694;BME280;21812;55.536;37.664;2022-12-08T10:40:29;100073.34;;;-6.50;64.25
35694;BME280;21812;55.536;37.664;2022-12-08T10:42:59;100133.16;;;-6.33;65.00
35694;BME280;21812;55.536;37.664;2022-12-08T10:45:37;100132.09;;;-6.29;64.70
35694;BME280;21812;55.536;37.664;2022-12-08T10:48:05;100098.31;;;-6.47;64.88
35694;BME280;21812;55.536;37.664;2022-12-08T10:51:03;100138.47;;;-6.17;64.71
35694;BME280;21812;55.536;37.664;2022-12-08T10:53:32;100128.59;;;-6.27;64.91
35694;BME280;21812;55.536;37.664;2022-12-08T10:58:37;100128.25;;;-6.39;65.89
35694;BME280;21812;55.536;37.664;2022-12-08T11:01:27;100081.06;;;-6.49;65.72
35694;BME280;21812;55.536;37.664;2022-12-08T11:04:02;100012.88;;;-6.90;66.02
35694;BME280;21812;55.536;37.664;2022-12-08T11:06:31;100136.38;;;-6.27;66.70
35694;BME280;21812;55.536;37.664;2022-12-08T11:09:01;100002.94;;;-7.18;67.05
35694;BME280;21812;55.536;37.664;2022-12-08T11:11:38;100129.78;;;-6.35;67.63
35694;BME280;21812;55.536;37.664;2022-12-08T11:14:59;100052.06;;;-6.76;67.78
35694;BME280;21812;55.536;37.664;2022-12-08T11:17:08;100071.19;;;-6.59;67.71
35694;BME280;21812;55.536;37.664;2022-12-08T11:19:44;100104.28;;;-6.45;68.08
35694;BME280;21812;55.536;37.664;2022-12-08T11:22:34;100116.16;;;-6.40;68.89
35694;BME280;21812;55.536;37.664;2022-12-08T11:27:36;100054.94;;;-6.64;68.69
35694;BME280;21812;55.536;37.664;2022-12-08T11:30:13;100090.03;;;-6.37;68.25
35694;BME280;21812;55.536;37.664;2022-12-08T11:32:42;100121.13;;;-6.16;68.07
35694;BME280;21812;55.536;37.664;2022-12-08T11:35:24;100104.50;;;-6.31;67.90
35694;BME280;21812;55.536;37.664;2022-12-08T11:37:52;100113.88;;;-6.29;67.91
35694;BME280;21812;55.536;37.664;2022-12-08T11:40:23;100118.19;;;-6.27;68.36
35694;BME280;21812;55.536;37.664;2022-12-08T11:43:07;100117.00;;;-6.20;68.60
35694;BME280;21812;55.536;37.664;2022-12-08T11:45:38;100061.25;;;-6.51;67.85
35694;BME280;21812;55.536;37.664;2022-12-08T11:48:17;99954.97;;;-7.10;67.57
35694;BME280;21812;55.536;37.664;2022-12-08T11:50:48;100117.69;;;-6.17;67.96
35694;BME280;21812;55.536;37.664;2022-12-08T11:53:32;100111.03;;;-6.05;67.97
35694;BME280;21812;55.536;37.664;2022-12-08T11:56:09;100105.50;;;-6.16;67.42
35694;BME280;21812;55.536;37.664;2022-12-08T11:58:44;100116.34;;;-6.25;67.71
35694;BME280;21812;55.536;37.664;2022-12-08T12:01:21;100063.50;;;-6.43;67.61
35694;BME280;21812;55.536;37.664;2022-12-08T12:03:54;100089.91;;;-6.16;67.56
35694;BME280;21812;55.536;37.664;2022-12-08T12:06:33;100115.38;;;-6.05;67.53
35694;BME280;21812;55.536;37.664;2022-12-08T12:11:49;100073.00;;;-6.25;68.27
35694;BME280;21812;55.536;37.664;2022-12-08T12:20:17;100126.63;;;-5.70;67.21
35694;BME280;21812;55.536;37.664;2022-12-08T12:22:50;100136.19;;;-5.71;66.05
35694;BME280;21812;55.536;37.664;2022-12-08T12:25:23;100122.25;;;-5.70;66.39
35694;BME280;21812;55.536;37.664;2022-12-08T12:27:51;100122.25;;;-5.70;66.75
35694;BME280;21812;55.536;37.664;2022-12-08T12:30:25;100128.00;;;-5.63;68.03
35694;BME280;21812;55.536;37.664;2022-12-08T12:33:00;100140.09;;;-5.62;66.15
35694;BME280;21812;55.536;37.664;2022-12-08T12:35:40;100130.44;;;-5.77;66.08
35694;BME280;21812;55.536;37.664;2022-12-08T12:38:17;100092.47;;;-5.97;66.72
35694;BME280;21812;55.536;37.664;2022-12-08T12:41:04;100099.03;;;-5.90;66.79
35694;BME280;21812;55.536;37.664;2022-12-08T12:43:36;100115.28;;;-5.86;66.36
35694;BME280;21812;55.536;37.664;2022-12-08T12:48:47;100140.94;;;-5.96;67.42
35694;BME280;21812;55.536;37.664;2022-12-08T12:54:21;100027.25;;;-6.64;66.80
35694;BME280;21812;55.536;37.664;2022-12-08T13:00:16;100165.66;;;-5.70;67.04
35694;BME280;21812;55.536;37.664;2022-12-08T13:02:36;100149.59;;;-5.78;66.75
35694;BME280;21812;55.536;37.664;2022-12-08T13:05:13;100159.69;;;-5.55;66.81
35694;BME280;21812;55.536;37.664;2022-12-08T13:13:30;100161.38;;;-5.54;67.18
35694;BME280;21812;55.536;37.664;2022-12-08T13:18:34;100168.69;;;-5.62;66.54
35694;BME280;21812;55.536;37.664;2022-12-08T13:21:15;100155.38;;;-5.73;67.04
35694;BME280;21812;55.536;37.664;2022-12-08T13:26:46;100167.31;;;-5.86;67.93
35694;BME280;21812;55.536;37.664;2022-12-08T13:29:23;100164.56;;;-5.83;67.57
35694;BME280;21812;55.536;37.664;2022-12-08T13:31:57;100165.34;;;-5.81;67.56
35694;BME280;21812;55.536;37.664;2022-12-08T13:34:52;100160.69;;;-5.75;67.91
35694;BME280;21812;55.536;37.664;2022-12-08T13:40:11;100148.00;;;-5.63;67.05
35694;BME280;21812;55.536;37.664;2022-12-08T13:45:15;100133.66;;;-5.72;67.58
35694;BME280;21812;55.536;37.664;2022-12-08T13:48:01;100080.03;;;-5.92;67.01
35694;BME280;21812;55.536;37.664;2022-12-08T13:50:33;100150.88;;;-5.52;67.09
35694;BME280;21812;55.536;37.664;2022-12-08T13:53:02;100142.47;;;-5.57;66.65
35694;BME280;21812;55.536;37.664;2022-12-08T13:58:05;100149.44;;;-5.40;66.74
35694;BME280;21812;55.536;37.664;2022-12-08T14:00:31;100152.31;;;-5.46;66.42
35694;BME280;21812;55.536;37.664;2022-12-08T14:02:59;100148.19;;;-5.51;66.39
35694;BME280;21812;55.536;37.664;2022-12-08T14:05:34;100094.03;;;-5.77;66.57
35694;BME280;21812;55.536;37.664;2022-12-08T14:08:28;100087.91;;;-5.76;66.72
35694;BME280;21812;55.536;37.664;2022-12-08T14:10:59;100165.81;;;-5.38;66.84
35694;BME280;21812;55.536;37.664;2022-12-08T14:13:28;100161.50;;;-5.39;66.60
35694;BME280;21812;55.536;37.664;2022-12-08T14:15:54;100135.09;;;-5.49;66.35